createdAt,value
2022-11-16T00:00:28.158Z,27.15
2022-11-16T00:03:33.396Z,24.65
2022-11-16T00:09:40.817Z,27.42
2022-11-16T00:12:43.933Z,26.83
2022-11-16T00:15:57.166Z,22.60
2022-11-16T00:19:04.234Z,21.77
2022-11-16T00:22:07.365Z,25.60
2022-11-16T00:25:11.329Z,24.65
2022-11-16T00:28:14.733Z,22.83
2022-11-16T00:31:17.611Z,20.92
2022-11-16T00:34:22.119Z,22.95
2022-11-16T00:37:24.998Z,23.40
2022-11-16T00:40:28.263Z,19.70
2022-11-16T00:43:31.134Z,22.17
2022-11-16T00:46:34.358Z,22.23
2022-11-16T00:49:38.601Z,26.75
2022-11-16T00:52:41.724Z,22.17
2022-11-16T00:55:46.087Z,20.08
2022-11-16T00:58:50.179Z,25.05
2022-11-16T01:01:53.145Z,21.20
2022-11-16T01:04:57.767Z,21.42
2022-11-16T01:08:00.740Z,25.40
2022-11-16T01:14:27.492Z,26.20
2022-11-16T01:17:30.650Z,23.27
2022-11-16T01:20:33.600Z,24.10
2022-11-16T01:23:36.826Z,22.52
2022-11-16T01:26:40.127Z,22.25
2022-11-16T01:29:43.619Z,24.52
2022-11-16T01:32:46.553Z,24.30
2022-11-16T01:35:50.294Z,24.02
2022-11-16T01:38:53.295Z,24.52
2022-11-16T01:41:57.148Z,22.70
2022-11-16T01:45:19.354Z,23.83
2022-11-16T01:48:26.736Z,24.15
2022-11-16T01:51:30.260Z,24.65
2022-11-16T01:54:37.113Z,21.62
2022-11-16T01:57:43.076Z,24.70
2022-11-16T02:00:46.556Z,25.10
2022-11-16T02:03:50.720Z,24.73
2022-11-16T02:06:59.940Z,28.17
2022-11-16T02:10:16.105Z,24.40
2022-11-16T02:13:46.280Z,27.48
2022-11-16T02:17:06.310Z,26.30
2022-11-16T02:20:54.536Z,28.35
2022-11-16T02:24:19.390Z,26.50
2022-11-16T02:27:30.746Z,25.83
2022-11-16T02:30:35.862Z,33.53
2022-11-16T02:33:41.430Z,26.75
2022-11-16T02:36:47.423Z,25.65
2022-11-16T02:39:54.953Z,25.98
2022-11-16T02:43:03.897Z,29.63
2022-11-16T02:46:11.802Z,27.52
2022-11-16T02:49:18.574Z,27.87
2022-11-16T02:52:22.884Z,24.87
2022-11-16T02:55:27.816Z,26.27
2022-11-16T02:58:31.568Z,25.65
2022-11-16T03:01:38.600Z,29.35
2022-11-16T03:04:44.439Z,30.30
2022-11-16T03:07:58.397Z,28.50
2022-11-16T03:11:23.319Z,29.60
2022-11-16T03:14:42.331Z,29.60
2022-11-16T03:17:48.327Z,32.40
2022-11-16T03:20:54.269Z,32.33
2022-11-16T03:23:57.801Z,31.67
2022-11-16T03:27:07.299Z,30.05
2022-11-16T03:30:10.269Z,32.80
2022-11-16T03:33:18.699Z,32.33
2022-11-16T03:36:33.749Z,33.95
2022-11-16T03:39:39.643Z,32.90
2022-11-16T03:42:45.035Z,34.15
2022-11-16T03:45:50.508Z,27.40
2022-11-16T03:48:59.525Z,32.42
2022-11-16T03:52:03.052Z,33.08
2022-11-16T03:55:08.355Z,29.58
2022-11-16T03:58:13.247Z,26.87
2022-11-16T04:01:16.435Z,29.10
2022-11-16T04:04:40.562Z,30.73
2022-11-16T04:08:03.527Z,28.77
2022-11-16T04:11:30.832Z,27.98
2022-11-16T04:14:52.457Z,24.17
2022-11-16T04:18:15.126Z,36.60
2022-11-16T04:21:44.120Z,30.45
2022-11-16T04:24:51.032Z,26.92
2022-11-16T04:28:13.347Z,28.55
2022-11-16T04:31:36.395Z,28.58
2022-11-16T04:34:58.258Z,28.48
2022-11-16T04:38:02.212Z,27.33
2022-11-16T04:41:05.561Z,26.48
2022-11-16T04:44:08.898Z,29.42
2022-11-16T04:47:12.959Z,28.42
2022-11-16T04:50:17.952Z,28.02
2022-11-16T04:53:23.435Z,34.88
2022-11-16T04:56:29.231Z,28.75
2022-11-16T04:59:32.341Z,29.37
2022-11-16T05:02:36.695Z,23.30
2022-11-16T05:05:39.668Z,23.65
2022-11-16T05:08:43.150Z,26.60
2022-11-16T05:11:46.150Z,29.05
2022-11-16T05:14:49.651Z,25.30
2022-11-16T05:17:55.043Z,22.67
2022-11-16T05:21:01.782Z,26.60
2022-11-16T05:24:24.407Z,24.58
2022-11-16T05:27:29.433Z,26.80
2022-11-16T05:30:33.563Z,26.33
2022-11-16T05:33:37.693Z,24.05
2022-11-16T05:36:40.684Z,20.23
2022-11-16T05:39:44.577Z,21.45
2022-11-16T05:42:49.351Z,25.25
2022-11-16T05:45:53.524Z,28.80
2022-11-16T05:48:56.945Z,27.95
2022-11-16T05:52:00.601Z,26.77
2022-11-16T05:55:04.623Z,24.70
2022-11-16T05:58:09.570Z,22.80
2022-11-16T06:01:13.563Z,24.98
2022-11-16T06:04:24.158Z,22.40
2022-11-16T06:07:27.910Z,20.30
2022-11-16T06:10:32.123Z,19.10
2022-11-16T06:13:35.567Z,22.42
2022-11-16T06:16:39.114Z,22.15
2022-11-16T06:19:42.484Z,22.37
2022-11-16T06:22:45.827Z,21.23
2022-11-16T06:25:54.231Z,23.50
2022-11-16T06:28:58.508Z,20.90
2022-11-16T06:32:03.141Z,21.60
2022-11-16T06:35:06.959Z,24.45
2022-11-16T06:38:10.421Z,22.35
2022-11-16T06:41:13.786Z,25.50
2022-11-16T06:44:16.990Z,20.85
2022-11-16T06:47:21.353Z,23.35
2022-11-16T06:50:24.432Z,21.40
2022-11-16T06:53:29.659Z,23.12
2022-11-16T06:56:35.264Z,17.85
2022-11-16T06:59:39.895Z,17.73
2022-11-16T07:02:44.631Z,16.77
2022-11-16T07:05:49.078Z,20.23
2022-11-16T07:08:52.417Z,15.90
2022-11-16T07:11:57.949Z,16.30
2022-11-16T07:15:00.884Z,19.15
2022-11-16T07:18:08.530Z,20.77
2022-11-16T07:21:15.286Z,16.45
2022-11-16T07:24:19.057Z,18.27
2022-11-16T07:27:22.981Z,19.30
2022-11-16T07:30:26.893Z,20.35
2022-11-16T07:33:30.434Z,18.20
2022-11-16T07:36:36.484Z,17.40
2022-11-16T07:39:39.396Z,17.77
2022-11-16T07:42:45.511Z,17.75
2022-11-16T07:45:49.488Z,20.02
2022-11-16T07:48:52.698Z,22.62
2022-11-16T07:51:58.616Z,24.42
2022-11-16T07:55:06.148Z,24.23
2022-11-16T07:58:09.178Z,23.40
2022-11-16T08:01:15.014Z,26.00
2022-11-16T08:04:18.844Z,18.50
2022-11-16T08:07:21.966Z,20.60
2022-11-16T08:10:26.125Z,18.33
2022-11-16T08:13:32.227Z,19.35
2022-11-16T08:16:35.628Z,20.42
2022-11-16T08:19:40.371Z,16.90
2022-11-16T08:22:45.374Z,18.80
2022-11-16T08:25:48.306Z,19.05
2022-11-16T08:28:53.919Z,18.33
2022-11-16T08:31:59.228Z,17.77
2022-11-16T08:35:03.746Z,16.98
2022-11-16T08:38:06.648Z,19.12
2022-11-16T08:41:10.172Z,22.52
2022-11-16T08:44:13.294Z,24.48
2022-11-16T08:47:19.420Z,25.45
2022-11-16T08:50:22.525Z,26.08
2022-11-16T08:53:26.095Z,19.60
2022-11-16T08:56:30.346Z,15.38
2022-11-16T08:59:33.632Z,16.75
2022-11-16T09:02:37.482Z,18.17
2022-11-16T09:05:42.655Z,16.70
2022-11-16T09:08:46.732Z,16.12
2022-11-16T09:11:52.612Z,22.40
2022-11-16T09:14:55.502Z,22.05
2022-11-16T09:17:58.697Z,21.98
2022-11-16T09:21:01.531Z,19.67
2022-11-16T09:24:06.308Z,24.60
2022-11-16T09:27:09.229Z,21.70
2022-11-16T09:30:13.821Z,20.67
2022-11-16T09:33:16.838Z,20.45
2022-11-16T09:36:21.470Z,21.45
2022-11-16T09:39:30.937Z,23.52
2022-11-16T09:43:01.190Z,20.98
2022-11-16T09:46:32.358Z,22.02
2022-11-16T09:49:42.083Z,24.10
2022-11-16T09:52:46.852Z,24.50
2022-11-16T09:55:53.716Z,25.55
2022-11-16T09:59:01.894Z,26.02
2022-11-16T10:02:23.489Z,24.35
2022-11-16T10:05:31.808Z,24.92
2022-11-16T10:08:49.568Z,24.00
2022-11-16T10:12:01.310Z,26.08
2022-11-16T10:15:28.458Z,24.95
2022-11-16T10:18:48.311Z,28.42
2022-11-16T10:22:30.253Z,27.37
2022-11-16T10:25:39.244Z,25.85
2022-11-16T10:29:01.307Z,27.83
2022-11-16T10:32:09.951Z,28.08
2022-11-16T10:35:12.752Z,27.33
2022-11-16T10:38:19.448Z,28.95
2022-11-16T10:41:37.108Z,27.42
2022-11-16T10:45:12.068Z,29.42
2022-11-16T10:48:47.585Z,28.83
2022-11-16T10:51:50.784Z,28.38
2022-11-16T10:54:53.908Z,30.45
2022-11-16T10:58:06.072Z,29.67
2022-11-16T11:01:10.699Z,29.42
2022-11-16T11:04:22.221Z,28.87
2022-11-16T11:07:40.347Z,29.35
2022-11-16T11:10:43.554Z,28.62
2022-11-16T11:13:46.475Z,32.72
2022-11-16T11:16:53.460Z,26.30
2022-11-16T11:20:00.020Z,26.98
2022-11-16T11:23:12.995Z,29.77
2022-11-16T11:26:38.839Z,29.25
2022-11-16T11:29:44.967Z,26.08
2022-11-16T11:32:48.344Z,27.83
2022-11-16T11:36:04.674Z,24.30
2022-11-16T11:39:35.937Z,28.05
2022-11-16T11:42:44.154Z,28.58
2022-11-16T11:45:57.050Z,29.40
2022-11-16T11:49:05.228Z,27.73
2022-11-16T11:52:19.821Z,29.63
2022-11-16T11:55:23.354Z,28.60
2022-11-16T11:58:31.562Z,31.95
2022-11-16T12:01:44.514Z,32.08
2022-11-16T12:04:57.306Z,28.10
2022-11-16T12:08:31.122Z,30.73
2022-11-16T12:11:37.220Z,32.58
2022-11-16T12:14:59.299Z,26.90
2022-11-16T12:18:13.242Z,30.67
2022-11-16T12:21:23.073Z,30.75
2022-11-16T12:24:56.857Z,36.00
2022-11-16T12:28:34.077Z,31.12
2022-11-16T12:32:06.104Z,33.28
2022-11-16T12:35:24.686Z,30.15
2022-11-16T12:38:30.742Z,35.42
2022-11-16T12:41:56.900Z,31.02
2022-11-16T12:45:18.665Z,28.17
2022-11-16T12:48:22.212Z,26.52
2022-11-16T12:51:32.253Z,23.17
2022-11-16T12:55:11.023Z,27.98
2022-11-16T12:58:10.839Z,26.23
2022-11-16T13:01:23.015Z,22.52
2022-11-16T13:04:29.857Z,22.85
2022-11-16T13:07:41.315Z,25.35
2022-11-16T13:10:47.199Z,22.33
2022-11-16T13:13:53.825Z,21.12
2022-11-16T13:16:58.313Z,20.40
2022-11-16T13:20:33.151Z,20.17
2022-11-16T13:24:18.710Z,18.92
2022-11-16T13:27:38.358Z,19.55
2022-11-16T13:31:00.971Z,20.35
2022-11-16T13:34:07.423Z,22.87
2022-11-16T13:37:39.735Z,22.75
2022-11-16T13:40:42.665Z,20.98
2022-11-16T13:43:49.275Z,19.75
2022-11-16T13:47:05.096Z,25.45
2022-11-16T13:50:17.817Z,20.02
2022-11-16T13:54:38.025Z,20.40
2022-11-16T13:56:50.342Z,25.92
2022-11-16T14:03:15.890Z,26.48
2022-11-16T14:06:22.368Z,33.45
2022-11-16T14:09:46.273Z,24.23
2022-11-16T14:12:54.450Z,26.12
2022-11-16T14:16:19.746Z,23.38
2022-11-16T14:19:47.457Z,21.02
2022-11-16T14:23:21.341Z,21.27
2022-11-16T14:26:47.126Z,18.08
2022-11-16T14:30:16.312Z,18.65
2022-11-16T14:33:31.571Z,21.35
2022-11-16T14:36:43.784Z,21.83
2022-11-16T14:39:47.079Z,18.87
2022-11-16T14:43:16.466Z,21.23
2022-11-16T14:46:26.829Z,18.90
2022-11-16T14:49:32.138Z,18.00
2022-11-16T14:52:40.773Z,17.60
2022-11-16T14:55:46.079Z,15.18
2022-11-16T14:58:54.488Z,15.23
2022-11-16T15:01:58.072Z,13.32
2022-11-16T15:05:01.608Z,16.20
2022-11-16T15:08:14.030Z,15.88
2022-11-16T15:11:59.604Z,15.07
2022-11-16T15:15:29.784Z,17.27
2022-11-16T15:18:32.870Z,15.15
2022-11-16T15:21:35.612Z,14.23
2022-11-16T15:24:38.899Z,16.02
2022-11-16T15:27:42.224Z,12.82
2022-11-16T15:30:48.534Z,13.95
2022-11-16T15:33:52.139Z,17.60
2022-11-16T15:36:55.500Z,18.45
2022-11-16T15:39:59.123Z,15.05
2022-11-16T15:43:04.961Z,13.98
2022-11-16T15:46:08.753Z,14.43
2022-11-16T15:49:28.066Z,15.23
2022-11-16T15:52:45.233Z,14.77
2022-11-16T15:55:50.232Z,14.07
2022-11-16T15:58:55.079Z,15.65
2022-11-16T16:01:58.253Z,12.15
2022-11-16T16:05:02.834Z,14.50
2022-11-16T16:08:06.658Z,15.40
2022-11-16T16:11:11.139Z,17.12
2022-11-16T16:14:28.925Z,16.48
2022-11-16T16:17:32.573Z,16.60
2022-11-16T16:20:36.265Z,15.65
2022-11-16T16:23:48.306Z,15.82
2022-11-16T16:26:51.347Z,17.75
2022-11-16T16:29:57.311Z,15.90
2022-11-16T16:33:00.577Z,17.00
2022-11-16T16:36:04.415Z,15.32
2022-11-16T16:39:08.635Z,17.77
2022-11-16T16:42:13.948Z,20.40
2022-11-16T16:45:44.583Z,18.55
2022-11-16T16:48:47.933Z,19.87
2022-11-16T16:51:50.737Z,18.05
2022-11-16T16:54:53.898Z,22.75
2022-11-16T16:57:58.343Z,24.10
2022-11-16T17:01:05.002Z,24.02
2022-11-16T17:04:08.267Z,22.77
2022-11-16T17:07:11.493Z,22.90
2022-11-16T17:10:15.338Z,20.02
2022-11-16T17:13:18.574Z,19.98
2022-11-16T17:16:22.471Z,19.05
2022-11-16T17:19:25.596Z,15.63
2022-11-16T17:22:28.751Z,26.98
2022-11-16T17:25:33.703Z,33.78
2022-11-16T17:28:36.698Z,24.10
2022-11-16T17:31:44.250Z,28.58
2022-11-16T17:34:47.397Z,19.92
2022-11-16T17:37:51.802Z,37.60
2022-11-16T17:41:06.263Z,36.53
2022-11-16T17:44:10.089Z,47.30
2022-11-16T17:47:13.338Z,38.67
2022-11-16T17:50:18.214Z,37.80
2022-11-16T17:53:21.169Z,37.10
2022-11-16T17:56:26.965Z,32.60
2022-11-16T17:59:30.787Z,32.28
2022-11-16T18:02:34.287Z,35.53
2022-11-16T18:05:37.892Z,33.78
2022-11-16T18:12:00.671Z,35.90
2022-11-16T18:15:27.618Z,40.45
2022-11-16T18:18:27.768Z,38.72
2022-11-16T18:21:31.857Z,39.67
2022-11-16T18:24:35.967Z,41.73
2022-11-16T18:27:39.419Z,37.40
2022-11-16T18:30:43.348Z,38.80
2022-11-16T18:33:48.071Z,39.88
2022-11-16T18:36:52.097Z,41.83
2022-11-16T18:39:55.821Z,42.00
2022-11-16T18:42:59.461Z,44.10
2022-11-16T18:46:02.892Z,41.35
2022-11-16T18:49:06.887Z,41.97
2022-11-16T18:52:11.167Z,42.10
2022-11-16T18:55:16.310Z,43.22
2022-11-16T18:58:48.547Z,39.75
2022-11-16T19:01:45.159Z,48.00
2022-11-16T19:04:48.552Z,43.65
2022-11-16T19:07:52.038Z,38.63
2022-11-16T19:10:55.529Z,39.85
2022-11-16T19:14:07.996Z,38.17
2022-11-16T19:17:14.720Z,35.28
2022-11-16T19:20:18.466Z,41.72
2022-11-16T19:23:22.044Z,39.72
2022-11-16T19:26:27.330Z,39.53
2022-11-16T19:29:30.760Z,45.47
2022-11-16T19:32:35.684Z,43.53
2022-11-16T19:35:39.999Z,43.17
2022-11-16T19:38:45.063Z,41.75
2022-11-16T19:41:48.395Z,49.25
2022-11-16T19:44:52.082Z,44.47
2022-11-16T19:47:57.121Z,48.87
2022-11-16T19:54:13.050Z,44.55
2022-11-16T19:57:20.915Z,43.95
2022-11-16T20:00:25.023Z,45.45
2022-11-16T20:03:28.704Z,49.13
2022-11-16T20:06:33.940Z,44.20
2022-11-16T20:09:37.440Z,41.47
2022-11-16T20:12:40.442Z,47.03
2022-11-16T20:15:43.985Z,41.22
2022-11-16T20:18:49.032Z,42.80
2022-11-16T20:24:56.637Z,38.05
2022-11-16T20:28:01.517Z,47.30
2022-11-16T20:31:08.395Z,40.08
2022-11-16T20:34:14.874Z,41.78
2022-11-16T20:37:17.752Z,47.15
2022-11-16T20:40:21.466Z,42.80
2022-11-16T20:43:25.165Z,39.90
2022-11-16T20:46:30.991Z,36.90
2022-11-16T20:49:34.594Z,30.10
2022-11-16T20:52:42.411Z,28.60
2022-11-16T20:55:47.179Z,32.05
2022-11-16T20:58:50.484Z,29.08
2022-11-16T21:01:54.849Z,36.72
2022-11-16T21:05:00.494Z,33.88
2022-11-16T21:11:15.252Z,33.20
2022-11-16T21:14:19.774Z,33.20
2022-11-16T21:17:22.973Z,33.78
2022-11-16T21:20:27.973Z,32.72
2022-11-16T21:23:33.671Z,34.25
2022-11-16T21:26:37.425Z,39.65
2022-11-16T21:29:40.528Z,40.40
2022-11-16T21:32:43.396Z,41.70
2022-11-16T21:35:46.639Z,32.75
2022-11-16T21:38:50.069Z,42.30
2022-11-16T21:41:53.747Z,35.75
2022-11-16T21:44:56.555Z,37.40
2022-11-16T21:48:00.863Z,37.85
2022-11-16T21:51:06.032Z,32.55
2022-11-16T21:54:09.186Z,33.30
2022-11-16T21:57:17.460Z,33.17
2022-11-16T22:00:20.947Z,30.88
2022-11-16T22:03:26.248Z,34.47
2022-11-16T22:06:48.708Z,34.15
2022-11-16T22:09:52.018Z,34.88
2022-11-16T22:12:55.064Z,30.12
2022-11-16T22:15:58.272Z,31.27
2022-11-16T22:19:01.174Z,30.88
2022-11-16T22:22:04.358Z,33.08
2022-11-16T22:25:08.827Z,34.10
2022-11-16T22:28:20.707Z,32.60
2022-11-16T22:31:24.399Z,33.40
2022-11-16T22:34:27.525Z,30.70
2022-11-16T22:37:31.125Z,31.95
2022-11-16T22:40:35.913Z,32.10
2022-11-16T22:43:39.355Z,32.03
2022-11-16T22:46:43.525Z,36.35
2022-11-16T22:49:46.259Z,33.20
2022-11-16T22:52:49.296Z,31.35
2022-11-16T22:55:51.927Z,38.75
2022-11-16T22:58:55.201Z,34.70
2022-11-16T23:01:58.040Z,33.97
2022-11-16T23:05:02.665Z,32.28
2022-11-16T23:08:06.211Z,35.88
2022-11-16T23:11:39.172Z,39.72
2022-11-16T23:15:00.627Z,40.67
2022-11-16T23:18:03.918Z,36.40
2022-11-16T23:21:25.422Z,34.80
2022-11-16T23:24:47.052Z,41.63
2022-11-16T23:28:04.554Z,39.03
2022-11-16T23:31:08.490Z,34.97
2022-11-16T23:34:11.476Z,39.85
2022-11-16T23:37:15.319Z,41.30
2022-11-16T23:40:18.276Z,40.90
2022-11-16T23:43:40.209Z,41.20
2022-11-16T23:46:43.614Z,35.28
2022-11-16T23:49:46.749Z,32.40
2022-11-16T23:52:49.567Z,36.83
2022-11-16T23:55:53.609Z,35.83
2022-11-16T23:58:58.595Z,37.85
